sensor_id;sensor_type;location;lat;lon;timestamp;temperature;humidity
5429;DHT22;2737;52.386;9.980;2023-06-04T00:02:07;11.40;91.80
5429;DHT22;2737;52.386;9.980;2023-06-04T00:04:36;11.40;92.00
5429;DHT22;2737;52.386;9.980;2023-06-04T00:07:03;11.30;92.30
5429;DHT22;2737;52.386;9.980;2023-06-04T00:09:30;11.30;93.00
5429;DHT22;2737;52.386;9.980;2023-06-04T00:11:57;11.40;93.60
5429;DHT22;2737;52.386;9.980;2023-06-04T00:14:24;11.40;93.60
5429;DHT22;2737;52.386;9.980;2023-06-04T00:16:51;11.30;93.80
5429;DHT22;2737;52.386;9.980;2023-06-04T00:19:18;11.30;94.30
5429;DHT22;2737;52.386;9.980;2023-06-04T00:21:47;11.00;95.10
5429;DHT22;2737;52.386;9.980;2023-06-04T00:24:14;10.90;96.60
5429;DHT22;2737;52.386;9.980;2023-06-04T00:26:41;10.80;97.50
5429;DHT22;2737;52.386;9.980;2023-06-04T00:29:08;10.70;99.30
5429;DHT22;2737;52.386;9.980;2023-06-04T00:31:35;10.50;99.90
5429;DHT22;2737;52.386;9.980;2023-06-04T00:34:03;10.40;99.90
5429;DHT22;2737;52.386;9.980;2023-06-04T00:36:31;10.30;99.90
5429;DHT22;2737;52.386;9.980;2023-06-04T00:38:59;10.30;99.90
5429;DHT22;2737;52.386;9.980;2023-06-04T00:41:26;10.40;99.90
5429;DHT22;2737;52.386;9.980;2023-06-04T00:43:53;10.40;99.90
5429;DHT22;2737;52.386;9.980;2023-06-04T00:46:23;10.40;99.90
5429;DHT22;2737;52.386;9.980;2023-06-04T00:48:51;10.30;99.90
5429;DHT22;2737;52.386;9.980;2023-06-04T00:51:19;10.10;99.90
5429;DHT22;2737;52.386;9.980;2023-06-04T00:53:48;9.90;99.90
5429;DHT22;2737;52.386;9.980;2023-06-04T00:56:16;9.80;99.90
5429;DHT22;2737;52.386;9.980;2023-06-04T00:58:44;9.70;99.90
5429;DHT22;2737;52.386;9.980;2023-06-04T01:01:18;9.70;99.90
5429;DHT22;2737;52.386;9.980;2023-06-04T01:03:51;9.50;99.90
5429;DHT22;2737;52.386;9.980;2023-06-04T01:06:24;9.50;99.90
5429;DHT22;2737;52.386;9.980;2023-06-04T01:08:53;9.50;99.90
5429;DHT22;2737;52.386;9.980;2023-06-04T01:11:33;9.40;99.90
5429;DHT22;2737;52.386;9.980;2023-06-04T01:14:00;9.40;99.90
5429;DHT22;2737;52.386;9.980;2023-06-04T01:16:28;9.50;99.90
5429;DHT22;2737;52.386;9.980;2023-06-04T01:18:58;9.60;99.90
5429;DHT22;2737;52.386;9.980;2023-06-04T01:21:30;9.70;99.90
5429;DHT22;2737;52.386;9.980;2023-06-04T01:24:01;9.60;99.90
5429;DHT22;2737;52.386;9.980;2023-06-04T01:26:33;9.70;99.90
5429;DHT22;2737;52.386;9.980;2023-06-04T01:29:01;9.70;99.90
5429;DHT22;2737;52.386;9.980;2023-06-04T01:31:29;9.70;99.90
5429;DHT22;2737;52.386;9.980;2023-06-04T01:33:58;9.50;99.90
5429;DHT22;2737;52.386;9.980;2023-06-04T01:36:25;9.50;99.90
5429;DHT22;2737;52.386;9.980;2023-06-04T01:38:52;9.50;99.90
5429;DHT22;2737;52.386;9.980;2023-06-04T01:41:19;9.40;99.90
5429;DHT22;2737;52.386;9.980;2023-06-04T01:43:48;9.40;99.90
5429;DHT22;2737;52.386;9.980;2023-06-04T01:46:15;9.40;99.90
5429;DHT22;2737;52.386;9.980;2023-06-04T01:48:42;9.30;99.90
5429;DHT22;2737;52.386;9.980;2023-06-04T01:51:09;9.20;99.90
5429;DHT22;2737;52.386;9.980;2023-06-04T01:53:36;9.20;99.90
5429;DHT22;2737;52.386;9.980;2023-06-04T01:56:03;9.30;99.90
5429;DHT22;2737;52.386;9.980;2023-06-04T01:58:30;9.30;99.90
5429;DHT22;2737;52.386;9.980;2023-06-04T02:00:58;9.40;99.90
5429;DHT22;2737;52.386;9.980;2023-06-04T02:03:28;9.30;99.90
5429;DHT22;2737;52.386;9.980;2023-06-04T02:06:01;9.10;99.90
5429;DHT22;2737;52.386;9.980;2023-06-04T02:08:28;9.10;99.90
5429;DHT22;2737;52.386;9.980;2023-06-04T02:10:56;9.00;99.90
5429;DHT22;2737;52.386;9.980;2023-06-04T02:13:23;8.90;99.90
5429;DHT22;2737;52.386;9.980;2023-06-04T02:15:50;8.80;99.90
5429;DHT22;2737;52.386;9.980;2023-06-04T02:18:19;8.80;99.90
5429;DHT22;2737;52.386;9.980;2023-06-04T02:20:48;8.90;99.90
5429;DHT22;2737;52.386;9.980;2023-06-04T02:23:16;9.00;99.90
5429;DHT22;2737;52.386;9.980;2023-06-04T02:25:44;8.90;99.90
5429;DHT22;2737;52.386;9.980;2023-06-04T02:28:11;8.70;99.90
5429;DHT22;2737;52.386;9.980;2023-06-04T02:30:38;8.70;99.90
5429;DHT22;2737;52.386;9.980;2023-06-04T02:33:05;8.50;99.90
5429;DHT22;2737;52.386;9.980;2023-06-04T02:35:36;8.40;99.90
5429;DHT22;2737;52.386;9.980;2023-06-04T02:38:03;8.40;99.90
5429;DHT22;2737;52.386;9.980;2023-06-04T02:40:30;8.40;99.90
5429;DHT22;2737;52.386;9.980;2023-06-04T02:42:57;8.30;99.90
5429;DHT22;2737;52.386;9.980;2023-06-04T02:45:25;8.30;99.90
5429;DHT22;2737;52.386;9.980;2023-06-04T02:47:52;8.30;99.90
5429;DHT22;2737;52.386;9.980;2023-06-04T02:50:19;8.20;99.90
5429;DHT22;2737;52.386;9.980;2023-06-04T02:52:47;8.10;99.90
5429;DHT22;2737;52.386;9.980;2023-06-04T02:55:15;8.00;99.90
5429;DHT22;2737;52.386;9.980;2023-06-04T02:57:42;8.00;99.90
5429;DHT22;2737;52.386;9.980;2023-06-04T03:00:10;8.10;99.90
5429;DHT22;2737;52.386;9.980;2023-06-04T03:02:40;8.10;99.90
5429;DHT22;2737;52.386;9.980;2023-06-04T03:05:09;8.10;99.90
5429;DHT22;2737;52.386;9.980;2023-06-04T03:07:38;8.00;99.90
5429;DHT22;2737;52.386;9.980;2023-06-04T03:10:09;8.00;99.90
5429;DHT22;2737;52.386;9.980;2023-06-04T03:12:36;8.00;99.90
5429;DHT22;2737;52.386;9.980;2023-06-04T03:15:04;8.00;99.90
5429;DHT22;2737;52.386;9.980;2023-06-04T03:17:32;8.00;99.90
5429;DHT22;2737;52.386;9.980;2023-06-04T03:19:59;8.00;99.90
5429;DHT22;2737;52.386;9.980;2023-06-04T03:22:26;7.90;99.90
5429;DHT22;2737;52.386;9.980;2023-06-04T03:24:53;7.80;99.90
5429;DHT22;2737;52.386;9.980;2023-06-04T03:27:22;7.80;99.90
5429;DHT22;2737;52.386;9.980;2023-06-04T03:29:49;7.80;99.90
5429;DHT22;2737;52.386;9.980;2023-06-04T03:32:16;7.80;99.90
5429;DHT22;2737;52.386;9.980;2023-06-04T03:34:43;7.80;99.90
5429;DHT22;2737;52.386;9.980;2023-06-04T03:37:10;7.80;99.90
5429;DHT22;2737;52.386;9.980;2023-06-04T03:39:37;7.70;99.90
5429;DHT22;2737;52.386;9.980;2023-06-04T03:42:05;7.80;99.90
5429;DHT22;2737;52.386;9.980;2023-06-04T03:44:33;7.50;99.90
5429;DHT22;2737;52.386;9.980;2023-06-04T03:47:00;7.60;99.90
5429;DHT22;2737;52.386;9.980;2023-06-04T03:49:27;7.60;99.90
5429;DHT22;2737;52.386;9.980;2023-06-04T03:51:54;7.70;99.90
5429;DHT22;2737;52.386;9.980;2023-06-04T03:54:21;7.70;99.90
5429;DHT22;2737;52.386;9.980;2023-06-04T03:56:49;7.70;99.90
5429;DHT22;2737;52.386;9.980;2023-06-04T03:59:16;7.70;99.90
5429;DHT22;2737;52.386;9.980;2023-06-04T04:01:44;7.80;99.90
5429;DHT22;2737;52.386;9.980;2023-06-04T04:04:11;7.80;99.90
5429;DHT22;2737;52.386;9.980;2023-06-04T04:06:38;7.70;99.90
5429;DHT22;2737;52.386;9.980;2023-06-04T04:09:05;7.90;99.90
5429;DHT22;2737;52.386;9.980;2023-06-04T04:11:33;7.90;99.90
5429;DHT22;2737;52.386;9.980;2023-06-04T04:14:00;8.00;99.90
5429;DHT22;2737;52.386;9.980;2023-06-04T04:16:27;8.00;99.90
5429;DHT22;2737;52.386;9.980;2023-06-04T04:18:56;8.10;99.90
5429;DHT22;2737;52.386;9.980;2023-06-04T04:21:23;8.20;99.90
5429;DHT22;2737;52.386;9.980;2023-06-04T04:23:50;8.30;99.90
5429;DHT22;2737;52.386;9.980;2023-06-04T04:26:18;8.40;99.90
5429;DHT22;2737;52.386;9.980;2023-06-04T04:28:45;8.40;99.90
5429;DHT22;2737;52.386;9.980;2023-06-04T04:31:12;8.50;99.90
5429;DHT22;2737;52.386;9.980;2023-06-04T04:33:40;8.60;99.90
5429;DHT22;2737;52.386;9.980;2023-06-04T04:36:08;8.60;99.90
5429;DHT22;2737;52.386;9.980;2023-06-04T04:38:39;8.70;99.90
5429;DHT22;2737;52.386;9.980;2023-06-04T04:41:07;8.80;99.90
5429;DHT22;2737;52.386;9.980;2023-06-04T04:43:35;8.90;99.90
5429;DHT22;2737;52.386;9.980;2023-06-04T04:46:03;8.90;99.90
5429;DHT22;2737;52.386;9.980;2023-06-04T04:48:31;9.10;99.90
5429;DHT22;2737;52.386;9.980;2023-06-04T04:50:58;9.10;99.90
5429;DHT22;2737;52.386;9.980;2023-06-04T04:53:27;9.00;99.90
5429;DHT22;2737;52.386;9.980;2023-06-04T04:55:54;9.10;99.90
5429;DHT22;2737;52.386;9.980;2023-06-04T04:58:21;9.20;99.90
5429;DHT22;2737;52.386;9.980;2023-06-04T05:00:48;9.30;99.90
5429;DHT22;2737;52.386;9.980;2023-06-04T05:03:15;9.40;99.90
5429;DHT22;2737;52.386;9.980;2023-06-04T05:05:42;9.40;99.90
5429;DHT22;2737;52.386;9.980;2023-06-04T05:08:10;9.50;99.90
5429;DHT22;2737;52.386;9.980;2023-06-04T05:10:38;9.60;99.90
5429;DHT22;2737;52.386;9.980;2023-06-04T05:13:05;9.70;99.90
5429;DHT22;2737;52.386;9.980;2023-06-04T05:15:32;9.70;99.90
5429;DHT22;2737;52.386;9.980;2023-06-04T05:17:59;9.90;99.90
5429;DHT22;2737;52.386;9.980;2023-06-04T05:20:27;10.00;99.90
5429;DHT22;2737;52.386;9.980;2023-06-04T05:22:55;10.00;99.90
5429;DHT22;2737;52.386;9.980;2023-06-04T05:25:22;10.00;99.90
5429;DHT22;2737;52.386;9.980;2023-06-04T05:27:51;9.90;99.90
5429;DHT22;2737;52.386;9.980;2023-06-04T05:30:18;9.90;99.90
5429;DHT22;2737;52.386;9.980;2023-06-04T05:32:45;10.00;99.90
5429;DHT22;2737;52.386;9.980;2023-06-04T05:35:12;10.20;99.90
5429;DHT22;2737;52.386;9.980;2023-06-04T05:37:39;10.40;99.90
5429;DHT22;2737;52.386;9.980;2023-06-04T05:40:08;10.50;99.90
5429;DHT22;2737;52.386;9.980;2023-06-04T05:42:36;10.80;99.90
5429;DHT22;2737;52.386;9.980;2023-06-04T05:45:06;11.10;99.90
5429;DHT22;2737;52.386;9.980;2023-06-04T05:47:34;11.20;99.90
5429;DHT22;2737;52.386;9.980;2023-06-04T05:50:03;11.30;99.90
5429;DHT22;2737;52.386;9.980;2023-06-04T05:52:31;11.40;99.90
5429;DHT22;2737;52.386;9.980;2023-06-04T05:54:58;11.30;99.90
5429;DHT22;2737;52.386;9.980;2023-06-04T05:57:25;11.40;99.90
5429;DHT22;2737;52.386;9.980;2023-06-04T05:59:52;11.50;99.90
5429;DHT22;2737;52.386;9.980;2023-06-04T06:02:21;11.80;99.90
5429;DHT22;2737;52.386;9.980;2023-06-04T06:04:48;12.10;99.90
5429;DHT22;2737;52.386;9.980;2023-06-04T06:07:15;12.20;99.90
5429;DHT22;2737;52.386;9.980;2023-06-04T06:09:42;12.30;99.90
5429;DHT22;2737;52.386;9.980;2023-06-04T06:12:09;12.50;99.90
5429;DHT22;2737;52.386;9.980;2023-06-04T06:14:36;12.70;99.90
5429;DHT22;2737;52.386;9.980;2023-06-04T06:17:03;12.70;99.90
5429;DHT22;2737;52.386;9.980;2023-06-04T06:19:32;12.90;99.90
5429;DHT22;2737;52.386;9.980;2023-06-04T06:21:59;12.80;99.90
5429;DHT22;2737;52.386;9.980;2023-06-04T06:24:26;13.00;99.90
5429;DHT22;2737;52.386;9.980;2023-06-04T06:26:53;13.10;99.90
5429;DHT22;2737;52.386;9.980;2023-06-04T06:29:20;13.20;99.90
5429;DHT22;2737;52.386;9.980;2023-06-04T06:31:47;13.40;99.90
5429;DHT22;2737;52.386;9.980;2023-06-04T06:34:14;13.50;99.90
5429;DHT22;2737;52.386;9.980;2023-06-04T06:36:42;13.60;99.90
5429;DHT22;2737;52.386;9.980;2023-06-04T06:39:09;13.90;99.90
5429;DHT22;2737;52.386;9.980;2023-06-04T06:41:37;14.00;99.90
5429;DHT22;2737;52.386;9.980;2023-06-04T06:44:05;14.50;99.90
5429;DHT22;2737;52.386;9.980;2023-06-04T06:46:32;14.90;99.90
5429;DHT22;2737;52.386;9.980;2023-06-04T06:48:59;15.00;99.90
5429;DHT22;2737;52.386;9.980;2023-06-04T06:51:26;15.10;99.90
5429;DHT22;2737;52.386;9.980;2023-06-04T06:53:54;15.30;99.90
5429;DHT22;2737;52.386;9.980;2023-06-04T06:56:21;15.60;99.90
5429;DHT22;2737;52.386;9.980;2023-06-04T06:58:48;15.60;99.90
5429;DHT22;2737;52.386;9.980;2023-06-04T07:01:16;15.60;99.90
5429;DHT22;2737;52.386;9.980;2023-06-04T07:03:43;15.70;99.90
5429;DHT22;2737;52.386;9.980;2023-06-04T07:06:10;16.00;99.90
5429;DHT22;2737;52.386;9.980;2023-06-04T07:08:38;16.10;99.90
5429;DHT22;2737;52.386;9.980;2023-06-04T07:11:07;16.50;99.90
5429;DHT22;2737;52.386;9.980;2023-06-04T07:13:37;16.90;99.90
5429;DHT22;2737;52.386;9.980;2023-06-04T07:16:04;17.50;99.90
5429;DHT22;2737;52.386;9.980;2023-06-04T07:18:32;17.90;99.90
5429;DHT22;2737;52.386;9.980;2023-06-04T07:20:59;17.90;99.90
5429;DHT22;2737;52.386;9.980;2023-06-04T07:23:26;17.30;99.90
5429;DHT22;2737;52.386;9.980;2023-06-04T07:25:54;17.60;99.90
5429;DHT22;2737;52.386;9.980;2023-06-04T07:28:22;18.10;99.90
5429;DHT22;2737;52.386;9.980;2023-06-04T07:30:50;18.30;99.60
5429;DHT22;2737;52.386;9.980;2023-06-04T07:33:17;18.40;99.70
5429;DHT22;2737;52.386;9.980;2023-06-04T07:35:44;18.80;99.40
5429;DHT22;2737;52.386;9.980;2023-06-04T07:38:11;18.80;98.00
5429;DHT22;2737;52.386;9.980;2023-06-04T07:40:38;18.80;98.70
5429;DHT22;2737;52.386;9.980;2023-06-04T07:43:06;18.80;98.00
5429;DHT22;2737;52.386;9.980;2023-06-04T07:45:34;19.30;97.90
5429;DHT22;2737;52.386;9.980;2023-06-04T07:48:01;19.60;97.70
5429;DHT22;2737;52.386;9.980;2023-06-04T07:50:28;19.20;96.70
5429;DHT22;2737;52.386;9.980;2023-06-04T07:52:55;19.10;96.80
5429;DHT22;2737;52.386;9.980;2023-06-04T07:55:22;19.50;97.50
5429;DHT22;2737;52.386;9.980;2023-06-04T07:57:49;19.10;95.80
5429;DHT22;2737;52.386;9.980;2023-06-04T08:00:16;19.30;95.60
5429;DHT22;2737;52.386;9.980;2023-06-04T08:02:45;19.30;93.70
5429;DHT22;2737;52.386;9.980;2023-06-04T08:05:14;19.40;94.50
5429;DHT22;2737;52.386;9.980;2023-06-04T08:07:41;19.60;95.10
5429;DHT22;2737;52.386;9.980;2023-06-04T08:10:09;19.90;93.70
5429;DHT22;2737;52.386;9.980;2023-06-04T08:12:36;19.40;93.90
5429;DHT22;2737;52.386;9.980;2023-06-04T08:15:04;19.30;91.30
5429;DHT22;2737;52.386;9.980;2023-06-04T08:17:31;19.00;90.80
5429;DHT22;2737;52.386;9.980;2023-06-04T08:20:00;19.60;90.80
5429;DHT22;2737;52.386;9.980;2023-06-04T08:22:27;19.90;90.50
5429;DHT22;2737;52.386;9.980;2023-06-04T08:24:54;20.00;91.00
5429;DHT22;2737;52.386;9.980;2023-06-04T08:27:22;20.50;90.40
5429;DHT22;2737;52.386;9.980;2023-06-04T08:29:49;20.60;91.30
5429;DHT22;2737;52.386;9.980;2023-06-04T08:32:17;19.90;91.40
5429;DHT22;2737;52.386;9.980;2023-06-04T08:34:47;20.30;91.40
5429;DHT22;2737;52.386;9.980;2023-06-04T08:37:15;19.90;89.60
5429;DHT22;2737;52.386;9.980;2023-06-04T08:39:43;19.30;89.90
5429;DHT22;2737;52.386;9.980;2023-06-04T08:42:14;19.50;91.20
5429;DHT22;2737;52.386;9.980;2023-06-04T08:44:45;20.00;90.20
5429;DHT22;2737;52.386;9.980;2023-06-04T08:47:13;20.10;86.20
5429;DHT22;2737;52.386;9.980;2023-06-04T08:49:43;20.60;87.30
5429;DHT22;2737;52.386;9.980;2023-06-04T08:52:11;20.80;87.40
5429;DHT22;2737;52.386;9.980;2023-06-04T08:54:40;21.00;85.00
5429;DHT22;2737;52.386;9.980;2023-06-04T08:57:08;21.50;82.60
5429;DHT22;2737;52.386;9.980;2023-06-04T08:59:36;21.80;82.60
5429;DHT22;2737;52.386;9.980;2023-06-04T09:02:04;21.10;82.50
5429;DHT22;2737;52.386;9.980;2023-06-04T09:04:32;21.30;85.30
5429;DHT22;2737;52.386;9.980;2023-06-04T09:07:01;21.10;82.00
5429;DHT22;2737;52.386;9.980;2023-06-04T09:09:29;21.40;85.90
5429;DHT22;2737;52.386;9.980;2023-06-04T09:11:58;21.50;81.60
5429;DHT22;2737;52.386;9.980;2023-06-04T09:14:28;21.70;80.20
5429;DHT22;2737;52.386;9.980;2023-06-04T09:16:56;21.70;78.80
5429;DHT22;2737;52.386;9.980;2023-06-04T09:19:24;22.00;76.50
5429;DHT22;2737;52.386;9.980;2023-06-04T09:21:52;22.20;75.00
5429;DHT22;2737;52.386;9.980;2023-06-04T09:24:21;22.40;70.30
5429;DHT22;2737;52.386;9.980;2023-06-04T09:26:48;22.60;68.70
5429;DHT22;2737;52.386;9.980;2023-06-04T09:29:17;22.70;69.60
5429;DHT22;2737;52.386;9.980;2023-06-04T09:31:45;22.80;68.80
5429;DHT22;2737;52.386;9.980;2023-06-04T09:34:13;22.90;68.70
5429;DHT22;2737;52.386;9.980;2023-06-04T09:36:40;23.00;70.10
5429;DHT22;2737;52.386;9.980;2023-06-04T09:39:15;23.10;69.00
5429;DHT22;2737;52.386;9.980;2023-06-04T09:41:43;22.80;68.60
5429;DHT22;2737;52.386;9.980;2023-06-04T09:44:10;22.70;68.70
5429;DHT22;2737;52.386;9.980;2023-06-04T09:46:39;22.50;68.80
5429;DHT22;2737;52.386;9.980;2023-06-04T09:49:06;22.30;69.10
5429;DHT22;2737;52.386;9.980;2023-06-04T09:51:33;22.40;70.20
5429;DHT22;2737;52.386;9.980;2023-06-04T09:54:02;22.50;69.70
5429;DHT22;2737;52.386;9.980;2023-06-04T09:56:29;22.50;69.30
5429;DHT22;2737;52.386;9.980;2023-06-04T09:58:58;22.40;67.60
5429;DHT22;2737;52.386;9.980;2023-06-04T10:01:28;22.00;69.60
5429;DHT22;2737;52.386;9.980;2023-06-04T10:04:02;21.50;68.60
5429;DHT22;2737;52.386;9.980;2023-06-04T10:06:33;21.40;70.60
5429;DHT22;2737;52.386;9.980;2023-06-04T10:09:05;21.70;71.30
5429;DHT22;2737;52.386;9.980;2023-06-04T10:11:35;21.90;71.20
5429;DHT22;2737;52.386;9.980;2023-06-04T10:14:04;21.90;70.80
5429;DHT22;2737;52.386;9.980;2023-06-04T10:16:33;21.90;70.10
5429;DHT22;2737;52.386;9.980;2023-06-04T10:19:07;22.10;68.20
5429;DHT22;2737;52.386;9.980;2023-06-04T10:21:34;22.40;68.10
5429;DHT22;2737;52.386;9.980;2023-06-04T10:24:03;22.60;67.40
5429;DHT22;2737;52.386;9.980;2023-06-04T10:26:32;22.60;67.00
5429;DHT22;2737;52.386;9.980;2023-06-04T10:29:00;22.60;66.80
5429;DHT22;2737;52.386;9.980;2023-06-04T10:31:27;22.60;66.90
5429;DHT22;2737;52.386;9.980;2023-06-04T10:33:55;22.70;67.30
5429;DHT22;2737;52.386;9.980;2023-06-04T10:36:24;22.80;67.00
5429;DHT22;2737;52.386;9.980;2023-06-04T10:38:53;22.50;69.40
5429;DHT22;2737;52.386;9.980;2023-06-04T10:41:21;22.60;65.80
5429;DHT22;2737;52.386;9.980;2023-06-04T10:43:49;22.70;63.70
5429;DHT22;2737;52.386;9.980;2023-06-04T10:46:17;22.60;62.80
5429;DHT22;2737;52.386;9.980;2023-06-04T10:48:48;22.40;61.10
5429;DHT22;2737;52.386;9.980;2023-06-04T10:51:16;22.40;60.50
5429;DHT22;2737;52.386;9.980;2023-06-04T10:53:44;22.20;59.80
5429;DHT22;2737;52.386;9.980;2023-06-04T10:56:12;22.00;60.40
5429;DHT22;2737;52.386;9.980;2023-06-04T10:58:38;22.00;59.70
5429;DHT22;2737;52.386;9.980;2023-06-04T11:01:06;22.10;60.30
5429;DHT22;2737;52.386;9.980;2023-06-04T11:03:36;22.30;60.80
5429;DHT22;2737;52.386;9.980;2023-06-04T11:06:14;22.60;63.50
5429;DHT22;2737;52.386;9.980;2023-06-04T11:08:44;22.70;61.40
5429;DHT22;2737;52.386;9.980;2023-06-04T11:11:11;22.60;58.30
5429;DHT22;2737;52.386;9.980;2023-06-04T11:13:39;22.50;57.60
5429;DHT22;2737;52.386;9.980;2023-06-04T11:16:14;22.40;58.80
5429;DHT22;2737;52.386;9.980;2023-06-04T11:18:42;22.50;58.30
5429;DHT22;2737;52.386;9.980;2023-06-04T11:21:09;22.30;58.00
5429;DHT22;2737;52.386;9.980;2023-06-04T11:23:37;22.20;58.10
5429;DHT22;2737;52.386;9.980;2023-06-04T11:26:06;22.20;58.60
5429;DHT22;2737;52.386;9.980;2023-06-04T11:28:33;22.30;59.00
5429;DHT22;2737;52.386;9.980;2023-06-04T11:31:01;22.50;58.90
5429;DHT22;2737;52.386;9.980;2023-06-04T11:33:29;22.60;58.90
5429;DHT22;2737;52.386;9.980;2023-06-04T11:35:56;22.50;59.20
5429;DHT22;2737;52.386;9.980;2023-06-04T11:38:23;22.50;58.70
5429;DHT22;2737;52.386;9.980;2023-06-04T11:40:59;22.50;58.90
5429;DHT22;2737;52.386;9.980;2023-06-04T11:43:29;22.30;58.30
5429;DHT22;2737;52.386;9.980;2023-06-04T11:45:56;22.40;59.20
5429;DHT22;2737;52.386;9.980;2023-06-04T11:48:23;22.30;58.30
5429;DHT22;2737;52.386;9.980;2023-06-04T11:50:51;22.20;58.20
5429;DHT22;2737;52.386;9.980;2023-06-04T11:53:19;21.80;59.40
5429;DHT22;2737;52.386;9.980;2023-06-04T11:55:46;22.00;58.90
5429;DHT22;2737;52.386;9.980;2023-06-04T11:58:13;22.10;59.30
5429;DHT22;2737;52.386;9.980;2023-06-04T12:00:42;22.30;59.20
5429;DHT22;2737;52.386;9.980;2023-06-04T12:03:12;22.50;58.80
5429;DHT22;2737;52.386;9.980;2023-06-04T12:05:39;22.40;58.80
5429;DHT22;2737;52.386;9.980;2023-06-04T12:08:07;22.30;57.90
5429;DHT22;2737;52.386;9.980;2023-06-04T12:10:38;22.50;58.80
5429;DHT22;2737;52.386;9.980;2023-06-04T12:13:06;22.00;56.70
5429;DHT22;2737;52.386;9.980;2023-06-04T12:15:33;21.70;55.20
5429;DHT22;2737;52.386;9.980;2023-06-04T12:18:02;21.60;58.30
5429;DHT22;2737;52.386;9.980;2023-06-04T12:20:33;21.90;57.10
5429;DHT22;2737;52.386;9.980;2023-06-04T12:23:01;21.80;56.30
5429;DHT22;2737;52.386;9.980;2023-06-04T12:25:29;21.80;56.40
5429;DHT22;2737;52.386;9.980;2023-06-04T12:27:57;21.60;55.00
5429;DHT22;2737;52.386;9.980;2023-06-04T12:30:35;21.20;55.70
5429;DHT22;2737;52.386;9.980;2023-06-04T12:33:03;21.50;55.90
5429;DHT22;2737;52.386;9.980;2023-06-04T12:35:30;21.60;56.40
5429;DHT22;2737;52.386;9.980;2023-06-04T12:37:57;21.50;55.70
5429;DHT22;2737;52.386;9.980;2023-06-04T12:40:24;21.70;55.90
5429;DHT22;2737;52.386;9.980;2023-06-04T12:42:51;21.80;56.60
5429;DHT22;2737;52.386;9.980;2023-06-04T12:45:18;21.90;55.20
5429;DHT22;2737;52.386;9.980;2023-06-04T12:47:45;21.80;54.20
5429;DHT22;2737;52.386;9.980;2023-06-04T12:50:14;21.90;54.50
5429;DHT22;2737;52.386;9.980;2023-06-04T12:52:43;21.90;54.20
5429;DHT22;2737;52.386;9.980;2023-06-04T12:55:10;21.90;54.60
5429;DHT22;2737;52.386;9.980;2023-06-04T12:57:37;22.10;57.10
5429;DHT22;2737;52.386;9.980;2023-06-04T13:00:05;21.90;55.30
5429;DHT22;2737;52.386;9.980;2023-06-04T13:02:33;22.20;56.50
5429;DHT22;2737;52.386;9.980;2023-06-04T13:05:00;22.30;56.20
5429;DHT22;2737;52.386;9.980;2023-06-04T13:07:28;22.30;56.60
5429;DHT22;2737;52.386;9.980;2023-06-04T13:09:55;22.30;55.90
5429;DHT22;2737;52.386;9.980;2023-06-04T13:12:22;22.30;55.20
5429;DHT22;2737;52.386;9.980;2023-06-04T13:14:49;22.40;56.20
5429;DHT22;2737;52.386;9.980;2023-06-04T13:17:16;22.20;54.60
5429;DHT22;2737;52.386;9.980;2023-06-04T13:19:43;22.10;55.20
5429;DHT22;2737;52.386;9.980;2023-06-04T13:22:10;22.00;54.30
5429;DHT22;2737;52.386;9.980;2023-06-04T13:24:38;22.00;54.90
5429;DHT22;2737;52.386;9.980;2023-06-04T13:27:05;22.10;54.60
5429;DHT22;2737;52.386;9.980;2023-06-04T13:29:33;21.90;53.40
5429;DHT22;2737;52.386;9.980;2023-06-04T13:32:00;22.00;54.10
5429;DHT22;2737;52.386;9.980;2023-06-04T13:34:27;22.00;54.10
5429;DHT22;2737;52.386;9.980;2023-06-04T13:36:54;22.20;55.10
5429;DHT22;2737;52.386;9.980;2023-06-04T13:39:21;22.10;54.50
5429;DHT22;2737;52.386;9.980;2023-06-04T13:41:50;22.00;55.40
5429;DHT22;2737;52.386;9.980;2023-06-04T13:44:17;21.90;54.00
5429;DHT22;2737;52.386;9.980;2023-06-04T13:46:44;22.00;53.90
5429;DHT22;2737;52.386;9.980;2023-06-04T13:49:11;21.90;55.20
5429;DHT22;2737;52.386;9.980;2023-06-04T13:51:39;22.00;55.30
5429;DHT22;2737;52.386;9.980;2023-06-04T13:54:07;22.10;54.80
5429;DHT22;2737;52.386;9.980;2023-06-04T13:56:35;22.20;54.90
5429;DHT22;2737;52.386;9.980;2023-06-04T13:59:03;22.40;57.30
5429;DHT22;2737;52.386;9.980;2023-06-04T14:01:31;22.40;54.40
5429;DHT22;2737;52.386;9.980;2023-06-04T14:03:59;22.40;55.10
5429;DHT22;2737;52.386;9.980;2023-06-04T14:06:26;22.40;55.40
5429;DHT22;2737;52.386;9.980;2023-06-04T14:08:53;22.40;56.30
5429;DHT22;2737;52.386;9.980;2023-06-04T14:11:20;22.60;56.40
5429;DHT22;2737;52.386;9.980;2023-06-04T14:13:48;22.80;57.30
5429;DHT22;2737;52.386;9.980;2023-06-04T14:16:16;22.80;54.20
5429;DHT22;2737;52.386;9.980;2023-06-04T14:18:43;22.60;54.10
5429;DHT22;2737;52.386;9.980;2023-06-04T14:21:10;22.60;54.40
5429;DHT22;2737;52.386;9.980;2023-06-04T14:23:37;22.40;53.60
5429;DHT22;2737;52.386;9.980;2023-06-04T14:26:04;22.30;53.60
5429;DHT22;2737;52.386;9.980;2023-06-04T14:28:31;22.30;53.70
5429;DHT22;2737;52.386;9.980;2023-06-04T14:30:58;22.20;54.20
5429;DHT22;2737;52.386;9.980;2023-06-04T14:33:27;22.30;56.10
5429;DHT22;2737;52.386;9.980;2023-06-04T14:35:54;22.50;55.70
5429;DHT22;2737;52.386;9.980;2023-06-04T14:38:21;22.60;56.40
5429;DHT22;2737;52.386;9.980;2023-06-04T14:40:48;22.60;54.80
5429;DHT22;2737;52.386;9.980;2023-06-04T14:43:15;22.60;55.30
5429;DHT22;2737;52.386;9.980;2023-06-04T14:45:42;22.60;54.90
5429;DHT22;2737;52.386;9.980;2023-06-04T14:48:10;22.50;55.30
5429;DHT22;2737;52.386;9.980;2023-06-04T14:50:38;22.30;54.90
5429;DHT22;2737;52.386;9.980;2023-06-04T14:53:05;22.40;56.60
5429;DHT22;2737;52.386;9.980;2023-06-04T14:55:33;22.60;55.80
5429;DHT22;2737;52.386;9.980;2023-06-04T14:58:00;22.50;54.70
5429;DHT22;2737;52.386;9.980;2023-06-04T15:00:28;22.40;54.20
5429;DHT22;2737;52.386;9.980;2023-06-04T15:02:55;22.40;55.20
5429;DHT22;2737;52.386;9.980;2023-06-04T15:05:22;22.40;54.40
5429;DHT22;2737;52.386;9.980;2023-06-04T15:07:51;22.50;55.40
5429;DHT22;2737;52.386;9.980;2023-06-04T15:10:18;22.40;54.40
5429;DHT22;2737;52.386;9.980;2023-06-04T15:12:45;22.40;55.80
5429;DHT22;2737;52.386;9.980;2023-06-04T15:15:12;22.40;56.10
5429;DHT22;2737;52.386;9.980;2023-06-04T15:17:39;22.70;57.50
5429;DHT22;2737;52.386;9.980;2023-06-04T15:20:07;22.80;54.80
5429;DHT22;2737;52.386;9.980;2023-06-04T15:22:34;22.70;55.70
5429;DHT22;2737;52.386;9.980;2023-06-04T15:25:02;22.70;54.80
5429;DHT22;2737;52.386;9.980;2023-06-04T15:27:29;22.50;54.20
5429;DHT22;2737;52.386;9.980;2023-06-04T15:29:56;22.50;54.80
5429;DHT22;2737;52.386;9.980;2023-06-04T15:32:23;22.50;55.50
5429;DHT22;2737;52.386;9.980;2023-06-04T15:34:50;22.60;54.90
5429;DHT22;2737;52.386;9.980;2023-06-04T15:37:17;22.60;53.80
5429;DHT22;2737;52.386;9.980;2023-06-04T15:39:44;22.60;53.60
5429;DHT22;2737;52.386;9.980;2023-06-04T15:42:13;22.60;54.60
5429;DHT22;2737;52.386;9.980;2023-06-04T15:44:40;22.50;54.50
5429;DHT22;2737;52.386;9.980;2023-06-04T15:47:07;22.40;54.70
5429;DHT22;2737;52.386;9.980;2023-06-04T15:49:34;22.50;55.00
5429;DHT22;2737;52.386;9.980;2023-06-04T15:52:01;22.60;55.60
5429;DHT22;2737;52.386;9.980;2023-06-04T15:54:28;22.60;56.10
5429;DHT22;2737;52.386;9.980;2023-06-04T15:56:55;22.60;55.30
5429;DHT22;2737;52.386;9.980;2023-06-04T15:59:23;22.60;55.70
5429;DHT22;2737;52.386;9.980;2023-06-04T16:01:51;22.60;55.20
5429;DHT22;2737;52.386;9.980;2023-06-04T16:04:18;22.50;54.90
5429;DHT22;2737;52.386;9.980;2023-06-04T16:06:45;22.50;55.20
5429;DHT22;2737;52.386;9.980;2023-06-04T16:09:12;22.60;55.60
5429;DHT22;2737;52.386;9.980;2023-06-04T16:11:39;22.60;55.00